createdAt,value
2017-07-09T00:02:32.223Z,0
2017-07-09T00:12:32.180Z,0
2017-07-09T00:22:32.211Z,0
2017-07-09T00:32:32.203Z,0
2017-07-09T00:42:32.132Z,4
2017-07-09T00:52:32.222Z,0
2017-07-09T01:02:32.206Z,0
2017-07-09T01:12:32.288Z,0
2017-07-09T01:22:32.253Z,0
2017-07-09T01:32:33.193Z,0
2017-07-09T01:42:32.281Z,0
2017-07-09T01:52:32.192Z,0
2017-07-09T02:02:32.308Z,0
2017-07-09T02:12:32.228Z,0
2017-07-09T02:22:32.153Z,0
2017-07-09T02:32:32.234Z,4
2017-07-09T02:42:32.158Z,0
2017-07-09T02:52:32.251Z,16
2017-07-09T03:02:32.211Z,44
2017-07-09T03:12:32.419Z,112
2017-07-09T03:22:33.200Z,200
2017-07-09T03:32:34.275Z,212
2017-07-09T03:42:35.776Z,232
2017-07-09T03:52:34.194Z,356
2017-07-09T04:02:32.203Z,648
2017-07-09T04:12:36.257Z,1156
2017-07-09T04:22:34.244Z,3168
2017-07-09T04:32:32.175Z,4460
2017-07-09T04:42:33.243Z,4528
2017-07-09T04:52:32.207Z,1900
2017-07-09T05:02:38.031Z,3428
2017-07-09T05:12:32.203Z,6796
2017-07-09T05:22:33.197Z,8284
2017-07-09T05:32:32.256Z,11708
2017-07-09T05:42:32.294Z,13976
2017-07-09T05:52:32.272Z,10292
2017-07-09T06:02:32.341Z,5920
2017-07-09T06:12:32.331Z,4864
2017-07-09T06:22:32.239Z,7656
2017-07-09T06:32:32.313Z,26176
2017-07-09T06:42:32.269Z,40064
2017-07-09T06:52:32.256Z,15904
2017-07-09T07:02:32.323Z,16568
2017-07-09T07:12:32.303Z,22720
2017-07-09T07:22:32.297Z,33504
2017-07-09T07:32:32.284Z,39200
2017-07-09T07:42:32.365Z,41504
2017-07-09T07:52:32.338Z,46208
2017-07-09T08:02:32.292Z,69856
2017-07-09T08:12:32.419Z,31008
2017-07-09T08:22:32.304Z,29856
2017-07-09T08:32:32.387Z,24800
2017-07-09T08:42:32.319Z,25024
2017-07-09T08:52:32.387Z,26880
2017-07-09T09:02:32.358Z,93408
2017-07-09T09:12:32.906Z,27968
2017-07-09T09:22:32.412Z,14228
2017-07-09T09:32:32.329Z,19712
2017-07-09T09:42:32.405Z,16692
2017-07-09T09:52:32.353Z,16256
2017-07-09T10:02:32.317Z,16812
2017-07-09T10:12:32.388Z,21024
2017-07-09T10:22:33.482Z,21312
2017-07-09T10:32:32.688Z,17940
2017-07-09T10:42:33.061Z,17636
2017-07-09T10:52:32.455Z,14692
2017-07-09T11:02:32.589Z,13808
2017-07-09T11:12:33.375Z,14660
2017-07-09T11:22:32.602Z,14088
2017-07-09T11:32:32.507Z,8544
2017-07-09T11:42:36.227Z,10200
2017-07-09T11:52:35.025Z,14056
2017-07-09T12:02:33.551Z,12044
2017-07-09T12:12:34.062Z,14344
2017-07-09T12:22:42.871Z,11880
2017-07-09T12:32:51.829Z,15024
2017-07-09T12:42:50.977Z,14384
2017-07-09T12:52:37.490Z,13048
2017-07-09T13:02:33.585Z,11968
2017-07-09T13:12:42.993Z,8796
2017-07-09T13:22:36.137Z,10636
2017-07-09T13:32:37.729Z,9768
2017-07-09T13:42:33.891Z,10760
2017-07-09T13:52:37.169Z,10612
2017-07-09T14:02:36.300Z,9616
2017-07-09T14:12:34.320Z,5548
2017-07-09T14:22:37.115Z,6644
2017-07-09T14:43:14.788Z,4688
2017-07-09T14:52:54.340Z,6056
2017-07-09T15:03:58.587Z,5684
2017-07-09T15:12:51.649Z,5364
2017-07-09T15:22:32.477Z,5528
2017-07-09T15:32:59.298Z,5504
2017-07-09T15:42:41.337Z,6388
2017-07-09T15:53:01.572Z,6512
2017-07-09T16:03:02.549Z,5348
2017-07-09T16:12:52.030Z,5196
2017-07-09T16:22:38.386Z,4912
2017-07-09T16:32:54.942Z,4360
2017-07-09T16:42:33.937Z,4880
2017-07-09T17:02:57.778Z,6148
2017-07-09T17:12:34.742Z,5452
2017-07-09T17:22:32.748Z,4384
2017-07-09T17:32:58.807Z,5148
2017-07-09T17:42:40.116Z,4728
2017-07-09T17:53:15.131Z,3972
2017-07-09T18:03:26.526Z,3212
2017-07-09T18:13:47.116Z,3104
2017-07-09T18:22:33.483Z,3028
2017-07-09T18:32:33.916Z,2424
2017-07-09T18:42:40.754Z,2048
2017-07-09T18:52:49.833Z,1312
2017-07-09T19:02:54.015Z,880
2017-07-09T19:12:35.995Z,1004
2017-07-09T19:32:43.492Z,340
2017-07-09T19:43:08.356Z,188
2017-07-09T19:53:11.087Z,124
2017-07-09T20:02:46.449Z,56
2017-07-09T20:13:10.966Z,16
2017-07-09T20:22:41.591Z,8
2017-07-09T20:33:40.730Z,4
2017-07-09T20:42:33.728Z,4
2017-07-09T20:53:39.529Z,4
2017-07-09T21:22:45.782Z,4
2017-07-09T21:32:45.780Z,4
2017-07-09T21:43:10.170Z,4
2017-07-09T21:52:45.651Z,0
2017-07-09T22:02:45.633Z,0
2017-07-09T22:12:45.745Z,4
2017-07-09T22:22:45.645Z,0
2017-07-09T22:32:45.742Z,4
2017-07-09T22:42:45.627Z,0
2017-07-09T22:52:45.618Z,4
2017-07-09T23:02:45.701Z,0
2017-07-09T23:12:45.674Z,0
2017-07-09T23:22:45.678Z,0
2017-07-09T23:32:45.706Z,0
2017-07-09T23:42:45.688Z,0
2017-07-09T23:52:45.704Z,0
